createdAt,value
2022-10-19T00:01:26.274Z,98413.13
2022-10-19T00:03:35.499Z,98416.50
2022-10-19T00:05:43.799Z,98419.00
2022-10-19T00:07:52.214Z,98415.66
2022-10-19T00:10:00.494Z,98417.78
2022-10-19T00:12:11.241Z,98415.31
2022-10-19T00:14:22.131Z,98411.78
2022-10-19T00:16:34.802Z,98419.31
2022-10-19T00:18:43.763Z,98415.09
2022-10-19T00:20:51.997Z,98415.50
2022-10-19T00:23:00.330Z,98414.06
2022-10-19T00:25:09.655Z,98410.38
2022-10-19T00:27:20.576Z,98407.59
2022-10-19T00:29:28.798Z,98405.28
2022-10-19T00:31:37.510Z,98407.47
2022-10-19T00:33:47.525Z,98406.91
2022-10-19T00:35:56.268Z,98402.31
2022-10-19T00:38:04.440Z,98409.13
2022-10-19T00:40:14.520Z,98409.31
2022-10-19T00:42:26.385Z,98403.97
2022-10-19T00:45:03.494Z,98413.84
2022-10-19T00:47:12.265Z,98411.38
2022-10-19T00:49:24.308Z,98404.31
2022-10-19T00:51:34.666Z,98409.69
2022-10-19T00:53:43.357Z,98418.16
2022-10-19T00:55:51.528Z,98413.91
2022-10-19T00:58:03.684Z,98427.34
2022-10-19T01:00:13.373Z,98424.47
2022-10-19T01:02:21.680Z,98425.13
2022-10-19T01:04:31.932Z,98415.78
2022-10-19T01:06:41.800Z,98427.41
2022-10-19T01:08:49.916Z,98419.47
2022-10-19T01:11:11.409Z,98422.41
2022-10-19T01:13:34.147Z,98417.06
2022-10-19T01:15:48.359Z,98414.63
2022-10-19T01:18:06.073Z,98418.63
2022-10-19T01:20:47.116Z,98412.22
2022-10-19T01:23:10.407Z,98412.84
2022-10-19T01:25:25.831Z,98413.72
2022-10-19T01:27:47.279Z,98403.81
2022-10-19T01:30:05.971Z,98403.59
2022-10-19T01:32:18.816Z,98402.44
2022-10-19T01:34:32.448Z,98400.72
2022-10-19T01:36:46.407Z,98398.63
2022-10-19T01:39:03.090Z,98391.59
2022-10-19T01:41:21.836Z,98396.50
2022-10-19T01:43:42.540Z,98393.97
2022-10-19T01:46:01.465Z,98388.13
2022-10-19T01:48:16.292Z,98385.94
2022-10-19T01:50:31.668Z,98386.72
2022-10-19T01:52:41.527Z,98384.56
2022-10-19T01:54:53.828Z,98388.66
2022-10-19T01:57:05.963Z,98384.28
2022-10-19T01:59:15.703Z,98383.16
2022-10-19T02:01:30.669Z,98380.47
2022-10-19T02:03:40.230Z,98372.53
2022-10-19T02:05:52.306Z,98376.69
2022-10-19T02:08:04.338Z,98372.25
2022-10-19T02:10:15.902Z,98367.13
2022-10-19T02:12:24.829Z,98373.31
2022-10-19T02:14:40.359Z,98365.75
2022-10-19T02:16:54.552Z,98368.13
2022-10-19T02:19:04.753Z,98368.13
2022-10-19T02:21:13.088Z,98367.06
2022-10-19T02:23:25.244Z,98367.25
2022-10-19T02:25:33.389Z,98370.53
2022-10-19T02:27:43.062Z,98362.03
2022-10-19T02:29:51.234Z,98351.59
2022-10-19T02:32:02.388Z,98354.56
2022-10-19T02:34:10.634Z,98349.59
2022-10-19T02:36:19.022Z,98352.44
2022-10-19T02:38:27.811Z,98344.53
2022-10-19T02:40:39.633Z,98341.94
2022-10-19T02:42:53.889Z,98341.09
2022-10-19T02:45:11.238Z,98345.47
2022-10-19T02:47:26.207Z,98337.56
2022-10-19T02:49:38.334Z,98349.06
2022-10-19T02:52:01.652Z,98341.59
2022-10-19T02:54:11.014Z,98344.91
2022-10-19T02:56:21.525Z,98340.56
2022-10-19T02:58:29.524Z,98344.06
2022-10-19T03:00:38.018Z,98341.38
2022-10-19T03:02:48.751Z,98335.31
2022-10-19T03:04:56.834Z,98336.59
2022-10-19T03:07:04.927Z,98333.44
2022-10-19T03:09:13.311Z,98333.72
2022-10-19T03:11:21.939Z,98331.56
2022-10-19T03:13:30.913Z,98327.72
2022-10-19T03:15:38.874Z,98331.34
2022-10-19T03:17:49.668Z,98324.09
2022-10-19T03:19:57.762Z,98316.28
2022-10-19T03:22:06.856Z,98317.88
2022-10-19T03:24:15.816Z,98316.00
2022-10-19T03:26:24.326Z,98317.09
2022-10-19T03:28:32.856Z,98310.03
2022-10-19T03:30:41.135Z,98313.44
2022-10-19T03:32:52.332Z,98315.03
2022-10-19T03:35:00.434Z,98314.59
2022-10-19T03:37:09.565Z,98310.91
2022-10-19T03:39:19.171Z,98310.75
2022-10-19T03:41:31.300Z,98320.38
2022-10-19T03:43:39.510Z,98319.75
2022-10-19T03:45:49.895Z,98316.00
2022-10-19T03:48:00.939Z,98318.13
2022-10-19T03:50:11.573Z,98313.56
2022-10-19T03:52:19.844Z,98314.50
2022-10-19T03:54:27.988Z,98310.03
2022-10-19T03:56:37.790Z,98309.25
2022-10-19T03:58:47.869Z,98309.53
2022-10-19T04:00:56.361Z,98316.13
2022-10-19T04:03:07.142Z,98320.81
2022-10-19T04:05:15.603Z,98317.09
2022-10-19T04:07:25.300Z,98314.31
2022-10-19T04:09:33.552Z,98309.16
2022-10-19T04:11:42.324Z,98316.56
2022-10-19T04:13:52.655Z,98313.34
2022-10-19T04:16:01.133Z,98318.59
2022-10-19T04:18:11.743Z,98324.81
2022-10-19T04:20:19.928Z,98310.69
2022-10-19T04:22:27.978Z,98306.63
2022-10-19T04:24:36.317Z,98315.75
2022-10-19T04:26:46.056Z,98308.03
2022-10-19T04:28:54.068Z,98313.50
2022-10-19T04:31:05.570Z,98310.34
2022-10-19T04:33:16.466Z,98310.91
2022-10-19T04:35:24.415Z,98316.03
2022-10-19T04:37:32.757Z,98311.38
2022-10-19T04:39:43.515Z,98310.00
2022-10-19T04:41:51.710Z,98321.34
2022-10-19T04:44:02.728Z,98320.53
2022-10-19T04:46:13.361Z,98317.53
2022-10-19T04:48:24.125Z,98317.03
2022-10-19T04:50:32.124Z,98317.81
2022-10-19T04:52:40.499Z,98318.56
2022-10-19T04:54:49.439Z,98312.69
2022-10-19T04:56:57.753Z,98310.22
2022-10-19T04:59:06.160Z,98308.13
2022-10-19T05:01:16.814Z,98305.59
2022-10-19T05:03:27.762Z,98309.38
2022-10-19T05:05:36.301Z,98304.69
2022-10-19T05:07:44.609Z,98304.81
2022-10-19T05:09:52.642Z,98305.66
2022-10-19T05:12:00.870Z,98313.66
2022-10-19T05:14:12.947Z,98314.22
2022-10-19T05:16:23.644Z,98310.81
2022-10-19T05:18:34.937Z,98321.03
2022-10-19T05:20:43.308Z,98314.44
2022-10-19T05:22:51.956Z,98302.81
2022-10-19T05:25:00.534Z,98312.34
2022-10-19T05:27:09.937Z,98313.38
2022-10-19T05:29:18.370Z,98309.78
2022-10-19T05:31:28.759Z,98310.91
2022-10-19T05:33:40.607Z,98308.31
2022-10-19T05:35:49.618Z,98312.13
2022-10-19T05:37:58.469Z,98306.19
2022-10-19T05:40:08.229Z,98301.09
2022-10-19T05:42:16.521Z,98307.28
2022-10-19T05:44:27.494Z,98308.94
2022-10-19T05:46:38.117Z,98301.50
2022-10-19T05:48:49.811Z,98312.16
2022-10-19T05:50:58.453Z,98303.09
2022-10-19T05:53:06.653Z,98305.47
2022-10-19T05:55:15.244Z,98301.44
2022-10-19T05:57:23.820Z,98305.06
2022-10-19T05:59:32.021Z,98307.56
2022-10-19T06:01:40.739Z,98300.13
2022-10-19T06:03:55.770Z,98306.94
2022-10-19T06:06:05.761Z,98314.09
2022-10-19T06:08:14.021Z,98315.47
2022-10-19T06:10:23.018Z,98313.47
2022-10-19T06:12:31.409Z,98315.06
2022-10-19T06:14:39.645Z,98319.13
2022-10-19T06:16:48.773Z,98316.63
2022-10-19T06:19:00.906Z,98314.09
2022-10-19T06:21:11.154Z,98314.16
2022-10-19T06:23:19.586Z,98316.28
2022-10-19T06:25:28.238Z,98302.53
2022-10-19T06:27:36.681Z,98312.88
2022-10-19T06:29:47.841Z,98311.94
2022-10-19T06:31:56.330Z,98313.31
2022-10-19T06:34:07.553Z,98322.91
2022-10-19T06:36:17.663Z,98318.88
2022-10-19T06:38:26.113Z,98322.47
2022-10-19T06:40:34.485Z,98319.91
2022-10-19T06:42:42.861Z,98322.22
2022-10-19T06:44:51.824Z,98331.09
2022-10-19T06:47:00.220Z,98326.41
2022-10-19T06:49:10.930Z,98332.31
2022-10-19T06:51:19.125Z,98327.84
2022-10-19T06:53:47.273Z,98328.06
2022-10-19T06:55:55.784Z,98330.03
2022-10-19T06:58:04.709Z,98335.00
2022-10-19T07:00:15.192Z,98335.19
2022-10-19T07:02:23.434Z,98339.63
2022-10-19T07:04:34.173Z,98329.00
2022-10-19T07:06:43.172Z,98332.66
2022-10-19T07:08:51.499Z,98331.25
2022-10-19T07:11:01.036Z,98333.72
2022-10-19T07:15:37.759Z,98341.25
2022-10-19T07:17:46.111Z,98346.59
2022-10-19T07:19:57.111Z,98355.56
2022-10-19T07:22:05.721Z,98362.09
2022-10-19T07:24:14.458Z,98357.38
2022-10-19T07:26:27.050Z,98365.81
2022-10-19T07:28:35.828Z,98360.84
2022-10-19T07:30:44.166Z,98376.19
2022-10-19T07:32:52.282Z,98381.41
2022-10-19T07:35:03.362Z,98379.47
2022-10-19T07:37:11.544Z,98384.50
2022-10-19T07:39:20.226Z,98383.63
2022-10-19T07:41:29.205Z,98388.56
2022-10-19T07:43:37.660Z,98396.16
2022-10-19T07:45:45.960Z,98401.44
2022-10-19T07:47:54.539Z,98399.91
2022-10-19T07:50:05.473Z,98408.25
2022-10-19T07:52:13.740Z,98407.28
2022-10-19T07:54:22.799Z,98408.00
2022-10-19T07:56:31.903Z,98399.25
2022-10-19T07:58:41.296Z,98401.75
2022-10-19T08:00:49.952Z,98408.06
2022-10-19T08:03:19.381Z,98411.69
2022-10-19T08:05:29.644Z,98417.16
2022-10-19T08:07:37.937Z,98426.25
2022-10-19T08:09:53.389Z,98434.72
2022-10-19T08:12:01.888Z,98438.78
2022-10-19T08:14:10.638Z,98442.75
2022-10-19T08:16:29.932Z,98442.97
2022-10-19T08:18:38.145Z,98440.81
2022-10-19T08:20:49.979Z,98450.47
2022-10-19T08:22:59.094Z,98472.75
2022-10-19T08:25:11.338Z,98480.31
2022-10-19T08:27:19.462Z,98483.63
2022-10-19T08:29:30.563Z,98474.53
2022-10-19T08:31:40.446Z,98468.22
2022-10-19T08:33:49.449Z,98462.97
2022-10-19T08:36:00.492Z,98462.22
2022-10-19T08:38:08.861Z,98465.66
2022-10-19T08:40:22.785Z,98458.81
2022-10-19T08:42:42.383Z,98455.69
2022-10-19T08:45:15.151Z,98439.97
2022-10-19T08:47:34.376Z,98450.88
2022-10-19T08:49:43.462Z,98455.50
2022-10-19T08:51:59.659Z,98458.06
2022-10-19T08:54:14.976Z,98465.09
2022-10-19T08:56:51.293Z,98469.81
2022-10-19T08:59:13.009Z,98475.69
2022-10-19T09:01:37.649Z,98490.84
2022-10-19T09:03:55.293Z,98486.53
2022-10-19T09:06:19.911Z,98472.72
2022-10-19T09:08:31.498Z,98472.69
2022-10-19T09:10:43.817Z,98480.31
2022-10-19T09:12:58.976Z,98481.63
2022-10-19T09:15:11.070Z,98471.00
2022-10-19T09:17:20.065Z,98471.84
2022-10-19T09:19:32.297Z,98472.13
2022-10-19T09:21:48.461Z,98479.13
2022-10-19T09:24:07.453Z,98474.19
2022-10-19T09:26:18.824Z,98476.88
2022-10-19T09:28:41.415Z,98481.41
2022-10-19T09:30:51.676Z,98474.84
2022-10-19T09:33:03.515Z,98467.06
2022-10-19T09:35:25.077Z,98470.66
2022-10-19T09:37:34.881Z,98475.59
2022-10-19T09:39:52.381Z,98471.19
2022-10-19T09:42:11.990Z,98476.81
2022-10-19T09:44:21.086Z,98481.69
2022-10-19T09:46:52.152Z,98486.06
2022-10-19T09:49:03.496Z,98489.06
2022-10-19T09:51:16.129Z,98483.47
2022-10-19T09:53:26.789Z,98483.53
2022-10-19T09:55:42.630Z,98483.53
2022-10-19T09:57:52.317Z,98481.31
2022-10-19T10:00:01.426Z,98484.84
2022-10-19T10:02:20.343Z,98486.72
2022-10-19T10:04:30.400Z,98484.59
2022-10-19T10:06:42.276Z,98483.59
2022-10-19T10:08:52.996Z,98484.72
2022-10-19T10:11:09.992Z,98480.91
2022-10-19T10:13:21.971Z,98478.38
2022-10-19T10:15:33.819Z,98476.94
2022-10-19T10:17:42.397Z,98468.13
2022-10-19T10:20:06.425Z,98468.91
2022-10-19T10:22:29.088Z,98471.84
2022-10-19T10:24:39.135Z,98471.69
2022-10-19T10:26:51.798Z,98474.88
2022-10-19T10:29:01.476Z,98480.75
2022-10-19T10:31:12.155Z,98481.28
2022-10-19T10:33:40.717Z,98471.06
2022-10-19T10:35:56.750Z,98473.84
2022-10-19T10:38:12.127Z,98466.84
2022-10-19T10:40:26.041Z,98463.19
2022-10-19T10:42:40.293Z,98454.06
2022-10-19T10:44:51.873Z,98455.81
2022-10-19T10:47:05.933Z,98462.75
2022-10-19T10:49:24.042Z,98458.75
2022-10-19T10:51:38.027Z,98456.84
2022-10-19T10:53:46.758Z,98450.72
2022-10-19T10:55:59.746Z,98452.34
2022-10-19T10:58:18.788Z,98447.00
2022-10-19T11:00:27.368Z,98439.66
2022-10-19T11:02:42.821Z,98441.63
2022-10-19T11:04:57.428Z,98440.41
2022-10-19T11:07:18.499Z,98440.50
2022-10-19T11:09:32.060Z,98447.84
2022-10-19T11:11:45.060Z,98444.94
2022-10-19T11:13:59.784Z,98438.81
2022-10-19T11:16:15.501Z,98441.41
2022-10-19T11:18:28.243Z,98441.50
2022-10-19T11:20:42.290Z,98433.44
2022-10-19T11:22:56.298Z,98421.72
2022-10-19T11:25:25.636Z,98421.00
2022-10-19T11:27:46.454Z,98416.47
2022-10-19T11:30:15.433Z,98407.44
2022-10-19T11:32:30.666Z,98408.41
2022-10-19T11:34:56.230Z,98414.06
2022-10-19T11:37:15.631Z,98411.22
2022-10-19T11:39:46.975Z,98404.53
2022-10-19T11:42:04.761Z,98400.59
2022-10-19T11:44:26.571Z,98397.91
2022-10-19T11:46:45.943Z,98388.41
2022-10-19T11:49:10.879Z,98386.44
2022-10-19T11:51:25.557Z,98383.47
2022-10-19T11:53:43.072Z,98372.84
2022-10-19T11:56:00.855Z,98375.53
2022-10-19T11:58:39.094Z,98367.63
2022-10-19T12:00:58.556Z,98369.22
2022-10-19T12:03:27.104Z,98365.22
2022-10-19T12:05:45.149Z,98360.69
2022-10-19T12:08:07.607Z,98358.59
2022-10-19T12:10:28.268Z,98357.72
2022-10-19T12:12:39.564Z,98360.41
2022-10-19T12:14:52.849Z,98356.31
2022-10-19T12:17:05.842Z,98361.88
2022-10-19T12:19:24.184Z,98353.09
2022-10-19T12:21:37.808Z,98351.84
2022-10-19T12:23:49.382Z,98359.44
2022-10-19T12:26:01.266Z,98359.75
2022-10-19T12:28:09.376Z,98346.16
2022-10-19T12:30:20.634Z,98346.88
2022-10-19T12:32:32.435Z,98341.81
2022-10-19T12:34:53.963Z,98344.13
2022-10-19T12:37:08.260Z,98336.91
2022-10-19T12:39:26.509Z,98340.47
2022-10-19T12:41:43.540Z,98340.00
2022-10-19T12:44:05.134Z,98340.38
2022-10-19T12:46:21.974Z,98335.22
2022-10-19T12:48:30.689Z,98332.66
2022-10-19T12:51:05.982Z,98331.00
2022-10-19T12:56:03.468Z,98328.03
2022-10-19T12:58:22.848Z,98329.97
2022-10-19T13:00:33.980Z,98322.41
2022-10-19T13:02:44.660Z,98320.75
2022-10-19T13:04:56.327Z,98318.59
2022-10-19T13:07:11.212Z,98312.09
2022-10-19T13:09:29.817Z,98312.72
2022-10-19T13:11:38.997Z,98309.75
2022-10-19T13:14:01.712Z,98304.88
2022-10-19T13:16:51.249Z,98304.28
2022-10-19T13:19:20.552Z,98307.97
2022-10-19T13:21:46.416Z,98303.31
2022-10-19T13:24:29.189Z,98304.00
2022-10-19T13:26:38.986Z,98302.56
2022-10-19T13:28:56.703Z,98300.84
2022-10-19T13:31:11.570Z,98298.94
2022-10-19T13:33:53.726Z,98288.06
2022-10-19T13:36:11.054Z,98279.19
2022-10-19T13:38:30.894Z,98276.50
2022-10-19T13:40:58.627Z,98276.25
2022-10-19T13:43:07.559Z,98267.47
2022-10-19T13:45:25.070Z,98274.78
2022-10-19T13:47:42.603Z,98280.34
2022-10-19T13:50:25.956Z,98280.56
2022-10-19T13:52:46.406Z,98280.53
2022-10-19T13:55:22.048Z,98271.75
2022-10-19T13:57:53.822Z,98267.66
2022-10-19T14:00:19.956Z,98258.41
2022-10-19T14:02:52.796Z,98254.56
2022-10-19T14:05:17.712Z,98242.09
2022-10-19T14:07:30.317Z,98255.38
2022-10-19T14:10:13.690Z,98248.19
2022-10-19T14:12:27.407Z,98239.44
2022-10-19T14:14:43.416Z,98240.88
2022-10-19T14:16:58.370Z,98238.91
2022-10-19T14:19:17.234Z,98232.56
2022-10-19T14:21:37.150Z,98227.06
2022-10-19T14:26:19.808Z,98223.66
2022-10-19T14:28:28.501Z,98215.63
2022-10-19T14:30:39.808Z,98216.69
2022-10-19T14:32:48.376Z,98217.53
2022-10-19T14:34:57.887Z,98213.44
2022-10-19T14:37:06.353Z,98211.25
2022-10-19T14:39:26.611Z,98206.34
2022-10-19T14:41:38.327Z,98204.66
2022-10-19T14:43:46.914Z,98205.59
2022-10-19T14:46:14.237Z,98211.84
2022-10-19T14:48:22.504Z,98215.13
2022-10-19T14:50:45.087Z,98203.19
2022-10-19T14:52:58.553Z,98211.59
2022-10-19T14:55:15.370Z,98216.25
2022-10-19T14:57:29.775Z,98200.59
2022-10-19T15:01:58.223Z,98200.38
2022-10-19T15:04:07.804Z,98201.97
2022-10-19T15:06:22.882Z,98199.53
2022-10-19T15:08:42.691Z,98192.19
2022-10-19T15:10:52.204Z,98198.66
2022-10-19T15:13:08.385Z,98197.56
2022-10-19T15:15:20.819Z,98187.09
2022-10-19T15:17:36.325Z,98192.72
2022-10-19T15:19:46.133Z,98183.28
2022-10-19T15:22:09.520Z,98193.31
2022-10-19T15:24:29.415Z,98183.31
2022-10-19T15:26:38.294Z,98181.81
2022-10-19T15:28:47.363Z,98180.41
2022-10-19T15:31:03.457Z,98182.94
2022-10-19T15:33:18.175Z,98186.72
2022-10-19T15:35:32.576Z,98191.00
2022-10-19T15:37:44.257Z,98184.75
2022-10-19T15:39:54.467Z,98183.03
2022-10-19T15:42:35.357Z,98187.06
2022-10-19T15:44:46.459Z,98178.53
2022-10-19T15:47:21.595Z,98171.31
2022-10-19T15:50:00.776Z,98168.16
2022-10-19T15:52:18.024Z,98165.59
2022-10-19T15:54:26.602Z,98157.53
2022-10-19T15:56:36.982Z,98162.53
2022-10-19T15:58:45.168Z,98155.78
2022-10-19T16:00:53.472Z,98163.31
2022-10-19T16:03:01.842Z,98159.91
2022-10-19T16:05:13.239Z,98164.34
2022-10-19T16:07:28.057Z,98154.50
2022-10-19T16:09:36.245Z,98157.81
2022-10-19T16:11:44.850Z,98155.81
2022-10-19T16:13:54.025Z,98154.97
2022-10-19T16:16:11.399Z,98147.63
2022-10-19T16:18:20.015Z,98149.91
2022-10-19T16:20:32.993Z,98145.03
2022-10-19T16:22:41.206Z,98136.09
2022-10-19T16:24:49.437Z,98142.44
2022-10-19T16:26:57.878Z,98133.50
2022-10-19T16:29:07.856Z,98136.88
2022-10-19T16:31:16.337Z,98141.63
2022-10-19T16:33:27.226Z,98144.50
2022-10-19T16:35:40.254Z,98140.06
2022-10-19T16:37:48.505Z,98137.47
2022-10-19T16:39:57.039Z,98136.47
2022-10-19T16:42:05.283Z,98139.88
2022-10-19T16:44:15.996Z,98146.09
2022-10-19T16:46:25.068Z,98146.31
2022-10-19T16:48:33.479Z,98147.50
2022-10-19T16:50:45.191Z,98148.88
2022-10-19T16:53:10.354Z,98142.84
2022-10-19T16:55:18.460Z,98147.84
2022-10-19T16:57:26.952Z,98145.44
2022-10-19T16:59:35.204Z,98145.03
2022-10-19T17:01:44.509Z,98147.19
2022-10-19T17:03:53.231Z,98147.25
2022-10-19T17:06:05.692Z,98150.16
2022-10-19T17:08:13.796Z,98141.63
2022-10-19T17:10:22.260Z,98141.44
2022-10-19T17:12:30.613Z,98139.28
2022-10-19T17:14:39.565Z,98138.00
2022-10-19T17:16:48.247Z,98138.44
2022-10-19T17:18:59.354Z,98148.94
2022-10-19T17:21:13.923Z,98141.13
2022-10-19T17:23:22.715Z,98138.34
2022-10-19T17:25:30.801Z,98136.84
2022-10-19T17:27:39.625Z,98143.06
2022-10-19T17:29:48.204Z,98143.69
2022-10-19T17:31:56.863Z,98146.34
2022-10-19T17:34:06.110Z,98139.94
2022-10-19T18:17:49.301Z,98121.69
2022-10-19T18:19:59.841Z,98124.31
2022-10-19T18:22:07.661Z,98126.03
2022-10-19T18:24:23.480Z,98118.00
2022-10-19T18:26:34.017Z,98116.72
2022-10-19T18:28:42.001Z,98111.16
2022-10-19T18:30:52.957Z,98114.81
2022-10-19T18:33:01.065Z,98109.75
2022-10-19T18:35:10.503Z,98109.75
2022-10-19T18:37:19.204Z,98103.75
2022-10-19T18:39:27.621Z,98087.28
2022-10-19T18:41:39.112Z,98094.63
2022-10-19T18:43:50.273Z,98087.16
2022-10-19T18:46:02.808Z,98084.66
2022-10-19T18:48:11.741Z,98082.66
2022-10-19T18:50:20.640Z,98076.47
2022-10-19T18:52:28.944Z,98074.13
2022-10-19T18:54:38.214Z,98068.78
2022-10-19T18:56:50.426Z,98070.34
2022-10-19T18:58:59.333Z,98073.03
2022-10-19T19:01:12.317Z,98070.59
2022-10-19T19:03:20.856Z,98060.31
2022-10-19T19:05:29.236Z,98056.34
2022-10-19T19:07:37.194Z,98053.13
2022-10-19T19:09:45.066Z,98055.50
2022-10-19T19:11:54.370Z,98048.50
2022-10-19T19:14:03.902Z,98042.72
2022-10-19T19:16:19.204Z,98049.88
2022-10-19T19:18:27.315Z,98044.97
2022-10-19T19:20:38.794Z,98041.72
2022-10-19T19:22:48.406Z,98041.72
2022-10-19T19:25:11.198Z,98040.19
2022-10-19T19:27:22.136Z,98031.22
2022-10-19T19:29:30.741Z,98034.13
2022-10-19T19:31:41.939Z,98029.72
2022-10-19T19:33:55.041Z,98031.66
2022-10-19T19:36:03.121Z,98026.97
2022-10-19T19:38:11.124Z,98031.69
2022-10-19T19:40:19.849Z,98024.44
2022-10-19T19:42:28.098Z,98025.09
2022-10-19T19:44:36.393Z,98022.50
2022-10-19T19:46:46.879Z,98023.59
2022-10-19T19:49:02.774Z,98024.56
2022-10-19T19:51:11.217Z,98016.44
2022-10-19T19:53:19.783Z,98024.63
2022-10-19T19:55:28.070Z,98017.81
2022-10-19T19:57:37.491Z,98022.69
2022-10-19T19:59:45.664Z,98013.84
2022-10-19T20:01:56.549Z,98011.91
2022-10-19T20:04:05.028Z,98014.66
2022-10-19T20:06:13.025Z,98012.50
2022-10-19T20:08:20.800Z,98003.72
2022-10-19T20:10:28.657Z,98001.59
2022-10-19T20:12:36.931Z,98005.72
2022-10-19T20:14:44.870Z,97999.09
2022-10-19T20:16:55.524Z,97996.47
2022-10-19T20:19:07.393Z,98000.53
2022-10-19T20:21:16.639Z,97987.88
2022-10-19T20:23:24.384Z,97995.41
2022-10-19T20:25:32.382Z,97986.25
2022-10-19T20:27:40.434Z,97981.97
2022-10-19T20:29:49.943Z,97982.94
2022-10-19T20:32:00.424Z,97974.50
2022-10-19T20:34:11.117Z,97971.41
2022-10-19T20:36:22.055Z,97978.81
2022-10-19T20:38:29.800Z,97985.25
2022-10-19T20:40:41.105Z,97988.41
2022-10-19T20:42:49.176Z,97991.31
2022-10-19T20:44:57.722Z,97995.69
2022-10-19T20:47:08.352Z,97995.69
2022-10-19T20:49:16.266Z,98002.63
2022-10-19T20:51:30.762Z,98004.97
2022-10-19T20:53:40.293Z,97988.69
2022-10-19T20:55:47.969Z,97992.31
2022-10-19T20:57:56.062Z,97983.31
2022-10-19T21:00:03.806Z,97983.00
2022-10-19T21:02:15.098Z,97968.50
2022-10-19T21:04:24.093Z,97969.78
2022-10-19T21:06:34.012Z,97968.94
2022-10-19T21:08:41.886Z,97970.28
2022-10-19T21:10:49.711Z,97975.72
2022-10-19T21:12:57.628Z,97972.38
2022-10-19T21:15:05.699Z,97974.19
2022-10-19T21:17:15.998Z,97965.00
2022-10-19T21:19:26.279Z,97974.63
2022-10-19T21:21:36.027Z,97972.44
2022-10-19T21:23:44.798Z,97960.38
2022-10-19T21:25:58.429Z,97966.13
2022-10-19T21:28:06.249Z,97958.22
2022-10-19T21:30:14.555Z,97949.88
2022-10-19T21:32:26.505Z,97953.75
2022-10-19T21:34:35.321Z,97955.28
2022-10-19T21:36:43.177Z,97953.88
2022-10-19T21:38:51.647Z,97953.50
2022-10-19T21:41:03.469Z,97954.34
2022-10-19T21:43:11.630Z,97955.06
2022-10-19T21:45:29.735Z,97958.50
2022-10-19T21:47:40.997Z,97956.97
2022-10-19T21:49:49.968Z,97946.50
2022-10-19T21:51:58.603Z,97945.53
2022-10-19T21:54:07.700Z,97945.22
2022-10-19T21:56:16.218Z,97939.03
2022-10-19T21:58:24.806Z,97934.16
2022-10-19T22:00:33.042Z,97928.56
2022-10-19T22:02:44.006Z,97934.88
2022-10-19T22:04:52.015Z,97931.47
2022-10-19T22:07:01.486Z,97920.56
2022-10-19T22:09:11.586Z,97913.59
2022-10-19T22:11:19.386Z,97918.56
2022-10-19T22:13:27.474Z,97920.44
2022-10-19T22:15:39.871Z,97918.34
2022-10-19T22:17:50.174Z,97925.47
2022-10-19T22:19:57.843Z,97920.38
2022-10-19T22:22:06.185Z,97919.59
2022-10-19T22:24:16.776Z,97917.69
2022-10-19T22:26:26.524Z,97915.13
2022-10-19T22:28:34.377Z,97908.94
2022-10-19T22:30:45.158Z,97913.41
2022-10-19T22:32:55.911Z,97909.78
2022-10-19T22:35:03.914Z,97917.91
2022-10-19T22:37:12.310Z,97920.94
2022-10-19T22:39:20.421Z,97921.81
2022-10-19T22:41:28.399Z,97921.91
2022-10-19T22:43:36.494Z,97930.91
2022-10-19T22:45:44.605Z,97935.25
2022-10-19T22:47:55.517Z,97935.47
2022-10-19T22:50:03.270Z,97934.81
2022-10-19T22:52:11.173Z,97925.28
2022-10-19T22:54:19.994Z,97917.19
2022-10-19T22:56:27.723Z,97923.81
2022-10-19T22:58:35.927Z,97923.06
2022-10-19T23:00:48.129Z,97923.47
2022-10-19T23:02:58.781Z,97924.81
2022-10-19T23:05:06.888Z,97923.03
2022-10-19T23:07:14.656Z,97919.69
2022-10-19T23:09:22.953Z,97916.63
2022-10-19T23:11:31.060Z,97906.50
2022-10-19T23:13:39.408Z,97903.06
2022-10-19T23:15:48.442Z,97901.34
2022-10-19T23:18:00.721Z,97896.41
2022-10-19T23:20:10.065Z,97896.59
2022-10-19T23:22:17.859Z,97891.00
2022-10-19T23:24:25.798Z,97886.53
2022-10-19T23:26:33.530Z,97889.75
2022-10-19T23:28:44.187Z,97882.44
2022-10-19T23:30:52.517Z,97885.22
2022-10-19T23:33:03.501Z,97885.22
2022-10-19T23:35:11.662Z,97884.38
2022-10-19T23:37:20.245Z,97876.69
2022-10-19T23:39:28.027Z,97877.00
2022-10-19T23:41:36.734Z,97871.00
2022-10-19T23:43:45.223Z,97876.81
2022-10-19T23:45:55.403Z,97873.34
2022-10-19T23:48:06.653Z,97870.69
2022-10-19T23:50:14.633Z,97863.00
2022-10-19T23:52:22.673Z,97869.28
2022-10-19T23:54:30.904Z,97866.59
2022-10-19T23:56:38.633Z,97868.97
2022-10-19T23:58:47.517Z,97869.28
